Time;durP1;ratioP1;P1;durP2;ratioP2;P2;SDS_P1;SDS_P2;PMS_P1;PMS_P2;Temp;Humidity;BMP_temperature;BMP_pressure;BME280_temperature;BME280_humidity;BME280_pressure;Samples;Min_cycle;Max_cycle;Signal;HPM_P1;HPM_P2
2022/11/03 00:01:58;;;;;;;0.00;0.00;;;;;;;;;;5058703;28;20501;-84
2022/11/03 00:04:24;;;;;;;0.00;0.00;;;;;;;;;;5075322;28;20104;-83
2022/11/03 00:06:51;;;;;;;0.00;0.00;;;;;;;;;;5075666;28;20059;-84
2022/11/03 00:09:18;;;;;;;0.77;0.15;;;;;;;;;;5075210;28;20047;-84
2022/11/03 00:11:45;;;;;;;0.00;0.00;;;;;;;;;;5093799;28;20426;-84
2022/11/03 00:14:13;;;;;;;0.00;0.00;;;;;;;;;;5075061;28;20071;-84
2022/11/03 00:16:39;;;;;;;0.00;0.00;;;;;;;;;;5058574;28;20508;-84
2022/11/03 00:19:06;;;;;;;0.00;0.00;;;;;;;;;;5074962;28;20173;-84
2022/11/03 00:21:32;;;;;;;0.00;0.00;;;;;;;;;;5075253;28;20032;-84
2022/11/03 00:23:58;;;;;;;0.00;0.00;;;;;;;;;;5074452;28;20043;-85
2022/11/03 00:26:28;;;;;;;0.00;0.00;;;;;;;;;;5075081;28;20382;-84
2022/11/03 00:28:55;;;;;;;0.00;0.00;;;;;;;;;;5074826;28;20204;-84
2022/11/03 00:31:22;;;;;;;0.00;0.00;;;;;;;;;;5074877;28;20048;-84
2022/11/03 00:33:49;;;;;;;0.00;0.00;;;;;;;;;;5074850;28;20044;-84
2022/11/03 00:36:17;;;;;;;0.00;0.00;;;;;;;;;;5058155;28;20080;-84
2022/11/03 00:38:43;;;;;;;0.00;0.00;;;;;;;;;;5074643;28;20048;-84
2022/11/03 00:41:09;;;;;;;0.00;0.00;;;;;;;;;;5074855;28;20115;-84
2022/11/03 00:43:35;;;;;;;0.00;0.00;;;;;;;;;;5074785;28;20368;-84
2022/11/03 00:46:02;;;;;;;0.00;0.00;;;;;;;;;;5074847;28;20043;-84
2022/11/03 00:48:28;;;;;;;0.00;0.00;;;;;;;;;;5074777;28;20368;-83
2022/11/03 00:50:54;;;;;;;0.00;0.00;;;;;;;;;;5074645;28;20047;-84
2022/11/03 00:53:20;;;;;;;0.00;0.00;;;;;;;;;;5075006;28;20108;-83
2022/11/03 00:55:49;;;;;;;0.00;0.00;;;;;;;;;;5074575;28;20075;-83
2022/11/03 00:58:15;;;;;;;0.00;0.00;;;;;;;;;;5074547;28;20365;-84
2022/11/03 01:00:41;;;;;;;0.00;0.00;;;;;;;;;;5074549;28;20040;-84
2022/11/03 01:03:07;;;;;;;0.00;0.00;;;;;;;;;;5058037;28;20134;-83
2022/11/03 01:08:17;;;;;;;0.00;0.00;;;;;;;;;;5092940;28;20036;-83
2022/11/03 01:11:42;;;;;;;0.80;0.80;;;;;;;;;;5057591;28;20509;-83
2022/11/03 01:13:29;;;;;;;0.00;0.00;;;;;;;;;;5074580;28;20072;-83
2022/11/03 01:15:58;;;;;;;0.00;0.00;;;;;;;;;;5074829;28;20044;-84
2022/11/03 01:18:24;;;;;;;0.00;0.00;;;;;;;;;;5074418;28;20040;-83
2022/11/03 01:20:57;;;;;;;0.00;0.00;;;;;;;;;;5074296;28;20067;-83
2022/11/03 01:23:23;;;;;;;0.00;0.00;;;;;;;;;;5057783;28;20089;-84
2022/11/03 01:25:49;;;;;;;0.00;0.00;;;;;;;;;;5074255;28;20040;-84
2022/11/03 01:28:16;;;;;;;0.00;0.00;;;;;;;;;;5074389;28;20036;-84
2022/11/03 01:30:42;;;;;;;0.00;0.00;;;;;;;;;;5074323;28;20070;-84
2022/11/03 01:33:08;;;;;;;0.00;0.00;;;;;;;;;;5074692;28;20395;-84
2022/11/03 01:35:34;;;;;;;0.00;0.00;;;;;;;;;;5075219;28;20044;-84
2022/11/03 01:37:59;;;;;;;0.00;0.00;;;;;;;;;;5078155;28;20059;-84
2022/11/03 01:40:25;;;;;;;0.00;0.00;;;;;;;;;;5077906;28;20453;-84
2022/11/03 01:42:51;;;;;;;0.00;0.00;;;;;;;;;;5078203;28;20050;-84
2022/11/03 01:45:17;;;;;;;0.00;0.00;;;;;;;;;;5061790;28;20074;-84
2022/11/03 01:47:44;;;;;;;0.00;0.00;;;;;;;;;;5077976;28;20553;-84
2022/11/03 01:50:12;;;;;;;0.00;0.00;;;;;;;;;;5077996;28;20429;-84
2022/11/03 01:52:41;;;;;;;0.00;0.00;;;;;;;;;;5061471;28;20136;-84
2022/11/03 01:55:10;;;;;;;0.00;0.00;;;;;;;;;;5077827;28;20047;-85
2022/11/03 01:57:39;;;;;;;0.00;0.00;;;;;;;;;;5077775;28;20043;-83
2022/11/03 02:00:06;;;;;;;0.00;0.00;;;;;;;;;;5060692;28;20118;-84
2022/11/03 02:02:31;;;;;;;0.00;0.00;;;;;;;;;;5077836;28;20100;-84
2022/11/03 02:04:59;;;;;;;0.00;0.00;;;;;;;;;;5077575;28;20040;-84
2022/11/03 02:07:34;;;;;;;0.00;0.00;;;;;;;;;;5077629;28;20455;-84
2022/11/03 02:10:00;;;;;;;0.00;0.00;;;;;;;;;;5077380;28;20047;-82
2022/11/03 02:12:26;;;;;;;0.00;0.00;;;;;;;;;;5077428;28;20050;-83
2022/11/03 02:14:59;;;;;;;0.00;0.00;;;;;;;;;;5077743;28;20403;-84
2022/11/03 02:17:27;;;;;;;0.00;0.00;;;;;;;;;;5077570;28;20514;-84
2022/11/03 02:19:57;;;;;;;0.00;0.00;;;;;;;;;;5077394;28;20492;-83
2022/11/03 02:22:35;;;;;;;0.00;0.00;;;;;;;;;;5060765;28;20111;-84
2022/11/03 02:25:02;;;;;;;0.00;0.00;;;;;;;;;;5077177;28;20055;-84
2022/11/03 02:27:28;;;;;;;0.00;0.00;;;;;;;;;;5077203;28;20093;-84
2022/11/03 02:29:56;;;;;;;0.00;0.00;;;;;;;;;;5077012;28;20047;-84
2022/11/03 02:32:27;;;;;;;0.00;0.00;;;;;;;;;;5060621;28;20043;-84
2022/11/03 02:35:10;;;;;;;0.00;0.00;;;;;;;;;;5060378;28;20471;-83
2022/11/03 02:37:39;;;;;;;0.00;0.00;;;;;;;;;;5077049;28;20070;-83
2022/11/03 02:40:12;;;;;;;0.00;0.00;;;;;;;;;;5076782;28;20047;-84
2022/11/03 02:42:40;;;;;;;0.00;0.00;;;;;;;;;;5077137;28;20044;-83
2022/11/03 02:45:07;;;;;;;0.00;0.00;;;;;;;;;;5076718;28;20452;-84
2022/11/03 02:47:34;;;;;;;0.00;0.00;;;;;;;;;;5076402;28;20048;-84
2022/11/03 02:50:00;;;;;;;0.00;0.00;;;;;;;;;;5094837;28;20050;-84
2022/11/03 02:52:34;;;;;;;0.00;0.00;;;;;;;;;;5077130;28;20044;-84
2022/11/03 02:55:02;;;;;;;0.00;0.00;;;;;;;;;;5076537;28;20047;-83
2022/11/03 02:57:30;;;;;;;0.00;0.00;;;;;;;;;;5076582;28;20093;-84
2022/11/03 02:59:59;;;;;;;0.00;0.00;;;;;;;;;;5076734;28;20065;-84
2022/11/03 03:02:31;;;;;;;0.00;0.00;;;;;;;;;;5076702;28;20036;-84
2022/11/03 03:04:58;;;;;;;0.00;0.00;;;;;;;;;;5076687;28;20104;-85
2022/11/03 03:07:27;;;;;;;0.00;0.00;;;;;;;;;;5076813;28;20039;-84
2022/11/03 03:09:57;;;;;;;0.00;0.00;;;;;;;;;;5076441;28;20042;-84
2022/11/03 03:12:24;;;;;;;0.00;0.00;;;;;;;;;;5076349;28;20056;-84
2022/11/03 03:14:51;;;;;;;0.00;0.00;;;;;;;;;;5076443;28;20094;-83
2022/11/03 03:17:25;;;;;;;0.00;0.00;;;;;;;;;;5075932;28;20050;-83
2022/11/03 03:19:58;;;;;;;0.00;0.00;;;;;;;;;;5094376;28;20044;-83
2022/11/03 03:22:28;;;;;;;0.00;0.00;;;;;;;;;;5076398;28;20337;-83
2022/11/03 03:25:06;;;;;;;0.00;0.00;;;;;;;;;;5059670;28;20036;-84
2022/11/03 03:27:33;;;;;;;0.00;0.00;;;;;;;;;;5059561;28;20433;-83
2022/11/03 03:30:02;;;;;;;0.00;0.00;;;;;;;;;;5076079;28;20040;-83
2022/11/03 03:32:30;;;;;;;0.00;0.00;;;;;;;;;;5059164;28;20067;-84
2022/11/03 03:34:58;;;;;;;0.00;0.00;;;;;;;;;;5076207;28;20040;-84
2022/11/03 03:37:25;;;;;;;0.00;0.00;;;;;;;;;;5075407;28;20048;-83
2022/11/03 03:39:52;;;;;;;0.00;0.00;;;;;;;;;;5075676;28;20051;-83
2022/11/03 03:42:19;;;;;;;0.00;0.00;;;;;;;;;;5075459;28;20552;-83
2022/11/03 03:44:46;;;;;;;0.00;0.00;;;;;;;;;;5093954;28;20043;-84
2022/11/03 03:47:23;;;;;;;0.00;0.00;;;;;;;;;;5059193;28;20086;-84
2022/11/03 03:49:50;;;;;;;0.00;0.00;;;;;;;;;;5058889;28;20047;-84
2022/11/03 03:52:16;;;;;;;0.00;0.00;;;;;;;;;;5075415;28;20035;-84
2022/11/03 03:54:42;;;;;;;0.00;0.00;;;;;;;;;;5075457;28;20040;-84
2022/11/03 03:57:12;;;;;;;0.00;0.00;;;;;;;;;;5075220;28;20097;-82
2022/11/03 03:59:38;;;;;;;0.00;0.00;;;;;;;;;;5075221;28;20060;-84
2022/11/03 04:02:04;;;;;;;0.00;0.00;;;;;;;;;;5058954;28;20067;-84
2022/11/03 04:04:30;;;;;;;0.00;0.00;;;;;;;;;;5058662;28;20032;-84
2022/11/03 04:09:41;;;;;;;0.00;0.00;;;;;;;;;;5075307;28;20131;-83
2022/11/03 04:23:07;;;;;;;0.00;0.00;;;;;;;;;;5075050;28;20586;-84
2022/11/03 04:25:34;;;;;;;0.00;0.00;;;;;;;;;;5075517;28;20075;-83
2022/11/03 04:27:59;;;;;;;0.00;0.00;;;;;;;;;;5074873;28;20127;-83
2022/11/03 04:30:26;;;;;;;0.00;0.00;;;;;;;;;;5058483;28;20478;-83
2022/11/03 04:32:52;;;;;;;0.00;0.00;;;;;;;;;;5074919;28;20040;-83
2022/11/03 04:35:23;;;;;;;0.00;0.00;;;;;;;;;;5074843;28;20101;-82
2022/11/03 04:37:51;;;;;;;0.00;0.00;;;;;;;;;;5074765;28;20075;-84
2022/11/03 04:40:17;;;;;;;0.00;0.00;;;;;;;;;;5074811;28;20071;-83
2022/11/03 04:42:43;;;;;;;0.00;0.00;;;;;;;;;;5074697;28;20093;-83
2022/11/03 04:45:16;;;;;;;0.00;0.00;;;;;;;;;;5093593;28;20198;-84
2022/11/03 04:47:42;;;;;;;0.00;0.00;;;;;;;;;;5074842;28;20131;-84
2022/11/03 04:50:14;;;;;;;0.00;0.00;;;;;;;;;;5074782;28;20130;-83
2022/11/03 04:52:40;;;;;;;0.00;0.00;;;;;;;;;;5057793;28;20395;-83
2022/11/03 04:55:09;;;;;;;0.00;0.00;;;;;;;;;;5057992;28;20043;-83
2022/11/03 04:57:36;;;;;;;0.00;0.00;;;;;;;;;;5074566;28;20048;-84
2022/11/03 05:00:02;;;;;;;0.00;0.00;;;;;;;;;;5074681;28;20043;-84
2022/11/03 05:02:28;;;;;;;0.00;0.00;;;;;;;;;;5074314;28;20039;-84
2022/11/03 05:04:54;;;;;;;0.00;0.00;;;;;;;;;;5057894;28;20046;-84
2022/11/03 05:07:22;;;;;;;0.00;0.00;;;;;;;;;;5074505;28;20506;-84
2022/11/03 05:09:48;;;;;;;0.00;0.00;;;;;;;;;;5076049;28;20040;-84
2022/11/03 05:12:14;;;;;;;0.00;0.00;;;;;;;;;;5078519;28;20033;-84
2022/11/03 05:14:40;;;;;;;0.03;0.03;;;;;;;;;;5062263;28;20078;-84
2022/11/03 05:17:15;;;;;;;0.00;0.00;;;;;;;;;;5078348;28;20076;-84
2022/11/03 05:19:42;;;;;;;0.00;0.00;;;;;;;;;;5078601;28;20036;-84
2022/11/03 05:22:14;;;;;;;0.00;0.00;;;;;;;;;;5078592;28;20286;-84
2022/11/03 05:24:41;;;;;;;0.00;0.00;;;;;;;;;;5061940;28;20044;-84
2022/11/03 05:27:13;;;;;;;0.00;0.00;;;;;;;;;;5078437;28;20063;-84
2022/11/03 05:29:39;;;;;;;0.00;0.00;;;;;;;;;;5061992;28;20047;-84
2022/11/03 05:32:14;;;;;;;0.00;0.00;;;;;;;;;;5078242;28;20502;-84
2022/11/03 05:34:44;;;;;;;0.00;0.00;;;;;;;;;;5078290;28;20044;-84
2022/11/03 05:37:30;;;;;;;0.00;0.00;;;;;;;;;;5077811;28;20048;-84
2022/11/03 05:39:58;;;;;;;0.00;0.00;;;;;;;;;;5077714;28;20044;-83
2022/11/03 05:42:30;;;;;;;0.00;0.00;;;;;;;;;;5078139;28;20040;-83
2022/11/03 05:44:56;;;;;;;0.00;0.00;;;;;;;;;;5078433;28;20059;-83
2022/11/03 05:47:25;;;;;;;0.00;0.00;;;;;;;;;;5095948;28;20127;-83
2022/11/03 05:49:55;;;;;;;0.00;0.00;;;;;;;;;;5078246;28;20040;-85
2022/11/03 05:52:26;;;;;;;0.00;0.00;;;;;;;;;;5061103;28;20079;-85
2022/11/03 05:54:53;;;;;;;0.00;0.00;;;;;;;;;;5077738;28;20044;-84
2022/11/03 05:57:19;;;;;;;0.00;0.00;;;;;;;;;;5077728;28;20044;-84
2022/11/03 05:59:46;;;;;;;0.00;0.00;;;;;;;;;;5060784;28;20032;-84
2022/11/03 06:02:25;;;;;;;0.00;0.00;;;;;;;;;;5077605;28;20274;-85
2022/11/03 06:04:51;;;;;;;0.00;0.00;;;;;;;;;;5077719;28;20111;-85
2022/11/03 06:07:28;;;;;;;0.00;0.00;;;;;;;;;;5077463;28;20051;-84
2022/11/03 06:09:55;;;;;;;0.00;0.00;;;;;;;;;;5077804;28;20094;-85
2022/11/03 06:12:21;;;;;;;0.00;0.00;;;;;;;;;;5060509;28;20042;-84
2022/11/03 06:14:48;;;;;;;0.00;0.00;;;;;;;;;;5077682;28;20269;-84
2022/11/03 06:17:24;;;;;;;0.00;0.00;;;;;;;;;;5077537;28;20080;-84
2022/11/03 06:19:53;;;;;;;0.00;0.00;;;;;;;;;;5077570;28;20036;-84
2022/11/03 06:22:23;;;;;;;0.00;0.00;;;;;;;;;;5076554;28;20475;-84
2022/11/03 06:24:50;;;;;;;0.00;0.00;;;;;;;;;;5077196;28;20082;-84
2022/11/03 06:27:16;;;;;;;0.00;0.00;;;;;;;;;;5077219;28;20108;-84
2022/11/03 06:29:44;;;;;;;0.00;0.00;;;;;;;;;;5077247;28;20040;-84
2022/11/03 06:32:11;;;;;;;0.00;0.00;;;;;;;;;;5077052;28;20040;-85
2022/11/03 06:34:40;;;;;;;0.00;0.00;;;;;;;;;;5060629;28;20607;-85
2022/11/03 06:37:15;;;;;;;0.00;0.00;;;;;;;;;;5076761;28;20048;-85
2022/11/03 06:39:41;;;;;;;0.00;0.00;;;;;;;;;;5077338;28;20032;-84
2022/11/03 06:42:19;;;;;;;0.00;0.00;;;;;;;;;;5076965;28;20122;-84
2022/11/03 06:44:45;;;;;;;0.00;0.00;;;;;;;;;;5077337;28;20055;-83
2022/11/03 06:47:20;;;;;;;0.00;0.00;;;;;;;;;;5076883;28;20036;-82
2022/11/03 06:49:47;;;;;;;0.00;0.00;;;;;;;;;;5077269;28;20368;-83
2022/11/03 06:52:22;;;;;;;0.00;0.00;;;;;;;;;;5076909;28;20062;-83
2022/11/03 06:54:49;;;;;;;0.00;0.00;;;;;;;;;;5077096;28;20039;-83
2022/11/03 06:57:16;;;;;;;0.00;0.00;;;;;;;;;;5076078;28;20040;-83
2022/11/03 06:59:44;;;;;;;0.00;0.00;;;;;;;;;;5095006;28;20043;-83
2022/11/03 07:02:30;;;;;;;0.00;0.00;;;;;;;;;;5076388;28;20074;-83
2022/11/03 07:04:55;;;;;;;0.00;0.00;;;;;;;;;;5076470;28;20066;-83
2022/11/03 07:07:24;;;;;;;0.00;0.00;;;;;;;;;;5076366;28;20077;-83
2022/11/03 07:09:50;;;;;;;0.00;0.00;;;;;;;;;;5094494;28;20392;-82
2022/11/03 07:12:16;;;;;;;0.00;0.00;;;;;;;;;;5076225;28;20036;-83
2022/11/03 07:14:42;;;;;;;0.00;0.00;;;;;;;;;;5075978;28;20475;-83
2022/11/03 07:17:20;;;;;;;0.00;0.00;;;;;;;;;;5076545;28;20048;-83
2022/11/03 07:19:46;;;;;;;0.00;0.00;;;;;;;;;;5076219;28;20117;-83
2022/11/03 07:22:21;;;;;;;0.00;0.00;;;;;;;;;;5076109;28;20040;-83
2022/11/03 07:24:48;;;;;;;0.00;0.00;;;;;;;;;;5075660;28;20036;-83
2022/11/03 07:27:21;;;;;;;0.00;0.00;;;;;;;;;;5076237;28;20047;-83
2022/11/03 07:29:48;;;;;;;0.00;0.00;;;;;;;;;;5076004;28;20513;-83
2022/11/03 07:32:18;;;;;;;0.00;0.00;;;;;;;;;;5075954;28;20047;-83
2022/11/03 07:34:45;;;;;;;0.00;0.00;;;;;;;;;;5093755;28;20036;-82
2022/11/03 07:37:17;;;;;;;0.00;0.00;;;;;;;;;;5067573;28;20135;-82
2022/11/03 07:39:43;;;;;;;0.00;0.00;;;;;;;;;;5089179;28;20043;-83
2022/11/03 07:42:13;;;;;;;0.00;0.00;;;;;;;;;;5055665;28;20041;-83
2022/11/03 07:44:39;;;;;;;0.10;0.00;;;;;;;;;;5073618;28;20039;-83
2022/11/03 07:47:10;;;;;;;0.00;0.00;;;;;;;;;;5055505;28;20044;-83
2022/11/03 07:49:36;;;;;;;0.00;0.00;;;;;;;;;;5055616;28;20142;-83
2022/11/03 07:52:08;;;;;;;0.00;0.00;;;;;;;;;;5073313;28;20483;-83
2022/11/03 07:54:34;;;;;;;0.00;0.00;;;;;;;;;;5070590;28;20123;-83
2022/11/03 07:57:04;;;;;;;0.00;0.00;;;;;;;;;;5075379;28;20147;-84
2022/11/03 07:59:33;;;;;;;0.00;0.00;;;;;;;;;;5075179;28;20044;-84
2022/11/03 08:01:59;;;;;;;0.00;0.00;;;;;;;;;;5075558;28;20404;-83
2022/11/03 08:04:27;;;;;;;0.00;0.00;;;;;;;;;;5075635;28;20036;-83
2022/11/03 08:06:53;;;;;;;0.00;0.00;;;;;;;;;;5072132;28;20106;-82
2022/11/03 08:09:20;;;;;;;0.00;0.00;;;;;;;;;;5093089;28;20035;-83
2022/11/03 08:11:46;;;;;;;0.00;0.00;;;;;;;;;;5092626;28;20487;-82
2022/11/03 08:14:12;;;;;;;0.00;0.00;;;;;;;;;;5093213;28;20407;-83
2022/11/03 08:16:38;;;;;;;0.00;0.00;;;;;;;;;;5092417;28;20036;-82
2022/11/03 08:19:04;;;;;;;0.00;0.00;;;;;;;;;;5074981;28;20036;-82
2022/11/03 08:21:30;;;;;;;0.00;0.00;;;;;;;;;;5092304;28;20063;-82
2022/11/03 08:23:56;;;;;;;0.00;0.00;;;;;;;;;;5091922;28;20044;-82
2022/11/03 08:26:23;;;;;;;0.00;0.00;;;;;;;;;;5092343;28;20040;-82
2022/11/03 08:28:49;;;;;;;0.00;0.00;;;;;;;;;;5091995;28;20127;-82
2022/11/03 08:31:15;;;;;;;0.00;0.00;;;;;;;;;;5091968;28;20511;-83
2022/11/03 08:33:41;;;;;;;0.00;0.00;;;;;;;;;;5091758;28;20048;-82
2022/11/03 08:36:08;;;;;;;0.00;0.00;;;;;;;;;;5091845;28;20131;-82
2022/11/03 08:38:34;;;;;;;0.00;0.00;;;;;;;;;;5091694;28;20054;-82
2022/11/03 08:41:01;;;;;;;0.00;0.00;;;;;;;;;;5093148;28;20040;-81
2022/11/03 08:43:27;;;;;;;0.00;0.00;;;;;;;;;;5092019;28;20145;-81
2022/11/03 08:45:53;;;;;;;0.00;0.00;;;;;;;;;;5091348;28;20596;-82
2022/11/03 08:48:23;;;;;;;0.00;0.00;;;;;;;;;;5091582;28;20090;-81
2022/11/03 08:50:49;;;;;;;0.00;0.00;;;;;;;;;;5092054;28;20044;-82
2022/11/03 08:53:16;;;;;;;0.00;0.00;;;;;;;;;;5091753;28;20048;-82
2022/11/03 08:55:42;;;;;;;0.00;0.00;;;;;;;;;;5091571;28;20124;-81
2022/11/03 08:58:08;;;;;;;0.00;0.00;;;;;;;;;;5091678;28;20446;-81
2022/11/03 09:00:35;;;;;;;0.00;0.00;;;;;;;;;;5074537;28;20096;-81
2022/11/03 09:03:01;;;;;;;0.22;0.00;;;;;;;;;;5074769;28;20420;-82
2022/11/03 09:05:27;;;;;;;0.00;0.00;;;;;;;;;;5091553;28;20040;-82
2022/11/03 09:07:53;;;;;;;0.00;0.00;;;;;;;;;;5091503;28;20395;-81
2022/11/03 09:10:19;;;;;;;0.00;0.00;;;;;;;;;;5092025;28;20040;-82
2022/11/03 09:12:45;;;;;;;0.00;0.00;;;;;;;;;;5075044;28;20536;-82
2022/11/03 09:15:11;;;;;;;0.00;0.00;;;;;;;;;;5091422;28;20048;-82
2022/11/03 09:17:37;;;;;;;0.00;0.00;;;;;;;;;;5091369;28;20108;-82
2022/11/03 09:20:04;;;;;;;0.00;0.00;;;;;;;;;;5091407;28;20044;-82
2022/11/03 09:22:30;;;;;;;0.00;0.00;;;;;;;;;;5091689;28;20124;-82
2022/11/03 09:24:56;;;;;;;0.00;0.00;;;;;;;;;;5091226;28;20071;-82
2022/11/03 09:27:22;;;;;;;0.00;0.00;;;;;;;;;;5091370;28;20127;-82
2022/11/03 09:29:48;;;;;;;0.00;0.00;;;;;;;;;;5091191;28;20052;-82
2022/11/03 09:32:14;;;;;;;0.00;0.00;;;;;;;;;;5091419;28;20048;-82
2022/11/03 09:34:40;;;;;;;0.00;0.00;;;;;;;;;;5092749;28;20040;-82
2022/11/03 09:37:06;;;;;;;0.00;0.00;;;;;;;;;;5091292;28;20052;-82
2022/11/03 09:39:33;;;;;;;0.00;0.00;;;;;;;;;;5092442;28;20044;-82
2022/11/03 09:41:59;;;;;;;0.00;0.00;;;;;;;;;;5086431;28;20075;-83
2022/11/03 09:44:26;;;;;;;0.00;0.00;;;;;;;;;;5090842;28;20085;-82
2022/11/03 09:46:52;;;;;;;0.00;0.00;;;;;;;;;;5092660;28;20040;-82
2022/11/03 09:49:20;;;;;;;0.00;0.00;;;;;;;;;;5074375;28;20123;-82
2022/11/03 09:51:46;;;;;;;0.00;0.00;;;;;;;;;;5092736;28;20051;-83
2022/11/03 09:54:16;;;;;;;0.00;0.00;;;;;;;;;;5092331;28;20040;-84
2022/11/03 09:56:43;;;;;;;0.00;0.00;;;;;;;;;;5076059;28;20555;-84
2022/11/03 09:59:19;;;;;;;0.00;0.00;;;;;;;;;;5077623;28;20131;-84
2022/11/03 10:01:48;;;;;;;0.00;0.00;;;;;;;;;;5078460;28;20560;-84
2022/11/03 10:04:15;;;;;;;0.00;0.00;;;;;;;;;;5077961;28;20462;-84
2022/11/03 10:06:41;;;;;;;0.00;0.00;;;;;;;;;;5078079;28;20036;-84
2022/11/03 10:09:10;;;;;;;0.00;0.00;;;;;;;;;;5077744;28;20119;-84
2022/11/03 10:11:37;;;;;;;0.00;0.00;;;;;;;;;;5061343;28;20040;-87
2022/11/03 10:14:05;;;;;;;0.00;0.00;;;;;;;;;;5077818;28;20067;-86
2022/11/03 10:16:31;;;;;;;0.00;0.00;;;;;;;;;;5077531;28;20044;-87
2022/11/03 10:18:59;;;;;;;0.00;0.00;;;;;;;;;;5077540;28;20082;-86
2022/11/03 10:21:27;;;;;;;0.00;0.00;;;;;;;;;;5077559;28;20078;-86
2022/11/03 10:23:53;;;;;;;0.00;0.00;;;;;;;;;;5077562;28;20071;-85
2022/11/03 10:26:19;;;;;;;0.00;0.00;;;;;;;;;;5077376;28;20036;-86
2022/11/03 10:29:05;;;;;;;0.00;0.00;;;;;;;;;;5077506;28;20225;-87
2022/11/03 10:31:35;;;;;;;0.00;0.00;;;;;;;;;;5077441;28;20044;-87
2022/11/03 10:34:01;;;;;;;0.00;0.00;;;;;;;;;;5077671;28;20044;-86
2022/11/03 10:36:28;;;;;;;0.00;0.00;;;;;;;;;;5076928;28;20460;-85
2022/11/03 10:38:55;;;;;;;0.00;0.00;;;;;;;;;;5077166;28;20051;-86
2022/11/03 10:41:22;;;;;;;0.20;0.20;;;;;;;;;;5077095;28;20040;-85
2022/11/03 10:43:57;;;;;;;0.00;0.00;;;;;;;;;;5077388;28;20028;-86
2022/11/03 10:46:23;;;;;;;0.00;0.00;;;;;;;;;;5077046;28;20036;-88
2022/11/03 10:49:09;;;;;;;0.00;0.00;;;;;;;;;;5076873;28;20483;-84
2022/11/03 10:51:35;;;;;;;0.00;0.00;;;;;;;;;;5077086;28;20488;-85
2022/11/03 10:54:02;;;;;;;0.00;0.00;;;;;;;;;;5077104;28;20126;-84
2022/11/03 10:56:28;;;;;;;0.00;0.00;;;;;;;;;;5076555;28;20044;-86
2022/11/03 10:58:54;;;;;;;0.00;0.00;;;;;;;;;;5076844;28;20093;-86
2022/11/03 11:01:20;;;;;;;0.00;0.00;;;;;;;;;;5076819;28;20438;-85
2022/11/03 11:03:47;;;;;;;0.00;0.00;;;;;;;;;;5076949;28;20545;-86
2022/11/03 11:06:25;;;;;;;0.00;0.00;;;;;;;;;;5076629;28;20118;-86
2022/11/03 11:08:56;;;;;;;0.00;0.00;;;;;;;;;;5076320;28;20403;-85
2022/11/03 11:11:22;;;;;;;0.00;0.00;;;;;;;;;;5076617;28;20131;-85
2022/11/03 11:14:07;;;;;;;0.00;0.00;;;;;;;;;;5076662;28;20131;-85
2022/11/03 11:16:48;;;;;;;0.00;0.00;;;;;;;;;;5076505;28;20048;-85
2022/11/03 11:19:14;;;;;;;0.00;0.00;;;;;;;;;;5076482;28;20040;-86
2022/11/03 11:21:40;;;;;;;0.00;0.00;;;;;;;;;;5076234;28;20040;-85
2022/11/03 11:24:10;;;;;;;0.00;0.00;;;;;;;;;;5076378;28;20078;-85
2022/11/03 11:26:37;;;;;;;0.00;0.00;;;;;;;;;;5076027;28;20123;-86
2022/11/03 11:29:10;;;;;;;0.00;0.00;;;;;;;;;;5076892;28;20079;-90
2022/11/03 11:31:36;;;;;;;0.00;0.00;;;;;;;;;;5076214;28;20058;-84
2022/11/03 11:34:08;;;;;;;0.00;0.00;;;;;;;;;;5076077;28;20101;-80
2022/11/03 11:36:35;;;;;;;0.00;0.00;;;;;;;;;;5093945;28;20056;-80
2022/11/03 11:39:01;;;;;;;0.00;0.00;;;;;;;;;;5094094;28;20044;-83
2022/11/03 11:41:46;;;;;;;0.00;0.00;;;;;;;;;;5075644;28;20043;-82
2022/11/03 11:44:31;;;;;;;0.00;0.00;;;;;;;;;;5093196;28;20039;-83
2022/11/03 11:46:57;;;;;;;0.00;0.00;;;;;;;;;;5075560;28;20040;-82
2022/11/03 11:49:23;;;;;;;0.00;0.00;;;;;;;;;;5075682;28;20059;-82
2022/11/03 11:51:49;;;;;;;0.00;0.00;;;;;;;;;;5075741;28;20101;-82
2022/11/03 11:54:18;;;;;;;0.00;0.00;;;;;;;;;;5075862;28;20090;-82
2022/11/03 11:56:45;;;;;;;0.00;0.00;;;;;;;;;;5075582;28;20044;-83
2022/11/03 11:59:21;;;;;;;0.00;0.00;;;;;;;;;;5075618;28;20184;-82
2022/11/03 12:01:51;;;;;;;0.00;0.00;;;;;;;;;;5088737;28;20395;-83
2022/11/03 12:04:22;;;;;;;0.00;0.00;;;;;;;;;;5075156;28;20048;-83
2022/11/03 12:06:48;;;;;;;0.00;0.00;;;;;;;;;;5075304;28;20036;-83
2022/11/03 12:09:16;;;;;;;0.00;0.00;;;;;;;;;;5075786;28;20348;-84
2022/11/03 12:11:47;;;;;;;0.00;0.00;;;;;;;;;;5075209;28;20035;-83
2022/11/03 12:14:28;;;;;;;0.00;0.00;;;;;;;;;;5075205;28;20075;-84
2022/11/03 12:16:55;;;;;;;0.00;0.00;;;;;;;;;;5075050;28;20431;-84
2022/11/03 12:19:34;;;;;;;0.00;0.00;;;;;;;;;;5091582;28;20077;-84
2022/11/03 12:22:00;;;;;;;0.05;0.05;;;;;;;;;;5075112;28;20481;-84
2022/11/03 12:24:35;;;;;;;0.00;0.00;;;;;;;;;;5075254;28;20503;-84
2022/11/03 12:27:02;;;;;;;0.10;0.05;;;;;;;;;;5075002;28;20487;-84
2022/11/03 12:29:28;;;;;;;0.00;0.00;;;;;;;;;;5075105;28;20052;-84
2022/11/03 12:31:54;;;;;;;0.00;0.00;;;;;;;;;;5074886;28;20092;-84
2022/11/03 12:34:20;;;;;;;0.00;0.00;;;;;;;;;;5075167;28;20040;-84
2022/11/03 12:36:47;;;;;;;0.00;0.00;;;;;;;;;;5074633;28;20059;-84
2022/11/03 12:39:14;;;;;;;0.00;0.00;;;;;;;;;;5075374;28;20062;-84
2022/11/03 12:41:40;;;;;;;0.00;0.00;;;;;;;;;;5074908;28;20462;-84
2022/11/03 12:44:06;;;;;;;11.70;0.28;;;;;;;;;;5075014;28;20047;-84
2022/11/03 12:46:32;;;;;;;0.00;0.00;;;;;;;;;;5074795;28;20479;-83
2022/11/03 12:48:58;;;;;;;0.00;0.00;;;;;;;;;;5074846;28;20044;-84
2022/11/03 12:51:24;;;;;;;0.00;0.00;;;;;;;;;;5074016;28;20055;-85
2022/11/03 12:53:50;;;;;;;0.00;0.00;;;;;;;;;;5075078;28;20051;-83
2022/11/03 12:56:17;;;;;;;0.00;0.00;;;;;;;;;;5091825;28;20043;-83
2022/11/03 12:58:43;;;;;;;0.00;0.00;;;;;;;;;;5074787;28;20040;-83
2022/11/03 13:01:10;;;;;;;0.30;0.15;;;;;;;;;;5074524;28;20044;-82
2022/11/03 13:03:36;;;;;;;0.00;0.00;;;;;;;;;;5075178;28;20063;-84
2022/11/03 13:06:03;;;;;;;0.00;0.00;;;;;;;;;;5074678;28;20403;-83
2022/11/03 13:08:32;;;;;;;0.00;0.00;;;;;;;;;;5074794;28;20040;-83
2022/11/03 13:10:58;;;;;;;0.00;0.00;;;;;;;;;;5092917;28;20046;-85
2022/11/03 13:13:25;;;;;;;0.00;0.00;;;;;;;;;;5075170;28;20093;-83
2022/11/03 13:15:52;;;;;;;0.00;0.00;;;;;;;;;;5074769;28;20051;-83
2022/11/03 13:18:18;;;;;;;0.00;0.00;;;;;;;;;;5091474;28;20044;-83
2022/11/03 13:20:44;;;;;;;0.00;0.00;;;;;;;;;;5074898;28;20040;-82
2022/11/03 13:23:11;;;;;;;0.00;0.00;;;;;;;;;;5092716;28;20036;-83
2022/11/03 13:25:37;;;;;;;0.00;0.00;;;;;;;;;;5074866;28;20491;-83
2022/11/03 13:28:03;;;;;;;0.00;0.00;;;;;;;;;;5074388;28;20070;-83
2022/11/03 13:30:29;;;;;;;0.00;0.00;;;;;;;;;;5075593;28;20052;-83
2022/11/03 13:32:56;;;;;;;0.00;0.00;;;;;;;;;;5078408;28;20499;-82
2022/11/03 13:35:22;;;;;;;0.00;0.00;;;;;;;;;;5078615;28;20044;-83
2022/11/03 13:37:48;;;;;;;0.35;0.20;;;;;;;;;;5078463;28;20044;-83
2022/11/03 13:40:16;;;;;;;0.00;0.00;;;;;;;;;;5078319;28;20046;-82
2022/11/03 13:42:42;;;;;;;0.00;0.00;;;;;;;;;;5078400;28;20384;-82
2022/11/03 13:45:08;;;;;;;0.00;0.00;;;;;;;;;;5078534;28;20570;-83
2022/11/03 13:47:34;;;;;;;0.00;0.00;;;;;;;;;;5078122;28;20185;-82
2022/11/03 13:50:00;;;;;;;1.45;0.88;;;;;;;;;;5074345;28;20055;-82
2022/11/03 13:52:27;;;;;;;0.00;0.00;;;;;;;;;;5075577;28;20051;-83
2022/11/03 13:54:53;;;;;;;0.00;0.00;;;;;;;;;;5096327;28;20042;-83
2022/11/03 13:57:19;;;;;;;0.00;0.00;;;;;;;;;;5077847;28;20040;-82
2022/11/03 13:59:45;;;;;;;0.00;0.00;;;;;;;;;;5077720;28;20063;-83
2022/11/03 14:02:12;;;;;;;0.00;0.00;;;;;;;;;;5077937;28;20461;-83
2022/11/03 14:04:38;;;;;;;0.00;0.00;;;;;;;;;;5077836;28;20387;-83
2022/11/03 14:07:07;;;;;;;0.00;0.00;;;;;;;;;;5078078;28;20032;-83
2022/11/03 14:09:33;;;;;;;0.00;0.00;;;;;;;;;;5077940;28;20119;-82
2022/11/03 14:14:44;;;;;;;0.00;0.00;;;;;;;;;;5096117;28;20051;-83
2022/11/03 14:17:11;;;;;;;0.00;0.00;;;;;;;;;;5077339;28;20590;-82
2022/11/03 14:19:37;;;;;;;0.00;0.00;;;;;;;;;;5077617;28;20110;-83
2022/11/03 14:22:03;;;;;;;0.00;0.00;;;;;;;;;;5095686;28;20047;-82
2022/11/03 14:24:29;;;;;;;0.00;0.00;;;;;;;;;;5077318;28;20145;-83
2022/11/03 14:26:55;;;;;;;0.00;0.00;;;;;;;;;;5077275;28;20421;-82
2022/11/03 14:29:20;;;;;;;0.00;0.00;;;;;;;;;;5077355;28;20079;-83
2022/11/03 14:31:46;;;;;;;0.00;0.00;;;;;;;;;;5077331;28;20044;-83
2022/11/03 14:34:12;;;;;;;0.00;0.00;;;;;;;;;;5077171;28;20487;-83
2022/11/03 14:36:38;;;;;;;0.00;0.00;;;;;;;;;;5077248;28;20157;-82
2022/11/03 14:39:04;;;;;;;0.00;0.00;;;;;;;;;;5076994;28;20480;-82
2022/11/03 14:44:15;;;;;;;0.00;0.00;;;;;;;;;;5095188;28;20076;-83
2022/11/03 14:46:41;;;;;;;0.00;0.00;;;;;;;;;;5094037;28;20071;-82
2022/11/03 14:49:07;;;;;;;0.00;0.00;;;;;;;;;;5094781;28;20052;-82
2022/11/03 14:51:34;;;;;;;0.00;0.00;;;;;;;;;;5077212;28;20066;-82
2022/11/03 14:54:00;;;;;;;0.00;0.00;;;;;;;;;;5076730;28;20047;-83
2022/11/03 14:56:26;;;;;;;0.00;0.00;;;;;;;;;;5076890;28;20047;-83
2022/11/03 14:58:52;;;;;;;0.00;0.00;;;;;;;;;;5076451;28;20443;-83
2022/11/03 15:01:18;;;;;;;0.00;0.00;;;;;;;;;;5094823;28;20043;-83
2022/11/03 15:03:45;;;;;;;0.00;0.00;;;;;;;;;;5076880;28;20143;-83
2022/11/03 15:06:10;;;;;;;0.00;0.00;;;;;;;;;;5076720;28;20050;-82
2022/11/03 15:08:37;;;;;;;0.00;0.00;;;;;;;;;;5094771;28;20121;-82
2022/11/03 15:11:04;;;;;;;0.10;0.10;;;;;;;;;;5076735;28;20036;-82